Terminal Aerodrome Forecast
Issued by NWS Jackson, MS

Home | Current Version | Previous Version | Text Only | Print | Product List | Glossary On
Versions: 1 2 3 4 5 6 7 8 9 10 11 12 13 14
781
FTUS44 KMEG 231130
TAFTUP
TAF
KTUP 231130Z 2312/2412 22009KT P6SM OVC012
     FM231600 23010KT 6SM BR VCSH SCT008 BKN015
     FM231900 25010KT P6SM -SHRA VCTS BKN025CB BKN080
     FM240300 VRB02KT 5SM BR VCSH BKN008 OVC012
     FM240600 VRB02KT 3SM BR OVC005=

USA.gov is the U.S. government's official web portal to all federal, state and local government web resources and services.